<?xml version="1.0" encoding="UTF-8" standalone="no" ?>
<gpx xmlns="http://www.topografix.com/GPX/1/1" xmlns:xsi="http://www.w3.org/2001/XMLSchema-instance" xsi:schemaLocation="http://www.topografix.com/GPX/1/1 http://www.topografix.com/GPX/1/1/gpx.xsd" version="1.1" creator="VisuGPX - https://www.visugpx.com">
  <metadata>
    <name>Sur les chemins de traverse du pays grônois</name>
    <desc><![CDATA[prépa séjour]]></desc>
  </metadata>
  <wpt lat="48.16086" lon="3.26268">
    <ele>87</ele>
    <name><![CDATA[Parking de la Mairie]]></name>
  </wpt>
  <wpt lat="48.1544" lon="3.26403">
    <ele>82</ele>
    <name><![CDATA[Intersection Rue des Fours]]></name>
  </wpt>
  <wpt lat="48.14827" lon="3.26">
    <ele>86</ele>
    <name><![CDATA[Bifurcation vers hameau des Épenards]]></name>
  </wpt>
  <wpt lat="48.14521" lon="3.266">
    <ele>91</ele>
    <name><![CDATA[Bifurcation au hameau des Épenards]]></name>
  </wpt>
  <wpt lat="48.13776" lon="3.254">
    <ele>105</ele>
    <name><![CDATA[Bifurcation à droite avant la route]]></name>
  </wpt>
  <wpt lat="48.13896" lon="3.2423">
    <ele>138</ele>
    <name><![CDATA[Bifurcation sur route de Gron à Bel Air]]></name>
  </wpt>
  <wpt lat="48.1384" lon="3.22647">
    <ele>171</ele>
    <name><![CDATA[Bifurcation vers GR213]]></name>
  </wpt>
  <wpt lat="48.1438" lon="3.23076">
    <ele>165</ele>
    <name><![CDATA[Bifurcation vers Bois des Haugames]]></name>
  </wpt>
  <wpt lat="48.15626" lon="3.25276">
    <ele>103</ele>
    <name><![CDATA[Bifurcation zone de loisirs de Gron]]></name>
  </wpt>
  <wpt lat="48.16002" lon="3.25621">
    <ele>85</ele>
    <name><![CDATA[Aire de stationnement camping-cars]]></name>
  </wpt>
  <wpt lat="48.16086" lon="3.26272">
    <ele>87</ele>
    <name><![CDATA[Parking de la Mairie]]></name>
  </wpt>
  <trk>
    <name><![CDATA[Sur les chemins de traverse du pays grônois]]></name>
    <trkseg>
      <trkpt lat="48.16086" lon="3.26268">
        <ele>87</ele>
        <time>2019-12-30T15:02:31+01:00</time>
      </trkpt>
      <trkpt lat="48.16088" lon="3.26279">
        <ele>87</ele>
        <time>2019-12-30T15:02:36+01:00</time>
      </trkpt>
      <trkpt lat="48.16071" lon="3.26289">
        <ele>86</ele>
        <time>2019-12-30T15:02:41+01:00</time>
      </trkpt>
      <trkpt lat="48.1606" lon="3.26296">
        <ele>85</ele>
        <time>2019-12-30T15:02:46+01:00</time>
      </trkpt>
      <trkpt lat="48.1605" lon="3.26339">
        <ele>85</ele>
        <time>2019-12-30T15:02:51+01:00</time>
      </trkpt>
      <trkpt lat="48.16031" lon="3.26332">
        <ele>84</ele>
        <time>2019-12-30T15:02:56+01:00</time>
      </trkpt>
      <trkpt lat="48.15992" lon="3.26315">
        <ele>80</ele>
        <time>2019-12-30T15:03:01+01:00</time>
      </trkpt>
      <trkpt lat="48.15967" lon="3.26307">
        <ele>80</ele>
        <time>2019-12-30T15:03:06+01:00</time>
      </trkpt>
      <trkpt lat="48.15922" lon="3.26274">
        <ele>80</ele>
        <time>2019-12-30T15:03:11+01:00</time>
      </trkpt>
      <trkpt lat="48.15896" lon="3.26259">
        <ele>82</ele>
        <time>2019-12-30T15:03:16+01:00</time>
      </trkpt>
      <trkpt lat="48.15869" lon="3.26244">
        <ele>84</ele>
        <time>2019-12-30T15:03:21+01:00</time>
      </trkpt>
      <trkpt lat="48.15846" lon="3.26237">
        <ele>85</ele>
        <time>2019-12-30T15:03:26+01:00</time>
      </trkpt>
      <trkpt lat="48.15824" lon="3.2623">
        <ele>86</ele>
        <time>2019-12-30T15:03:31+01:00</time>
      </trkpt>
      <trkpt lat="48.15819" lon="3.26214">
        <ele>87</ele>
        <time>2019-12-30T15:03:36+01:00</time>
      </trkpt>
      <trkpt lat="48.15812" lon="3.26194">
        <ele>88</ele>
        <time>2019-12-30T15:03:41+01:00</time>
      </trkpt>
      <trkpt lat="48.15808" lon="3.26175">
        <ele>88</ele>
        <time>2019-12-30T15:03:46+01:00</time>
      </trkpt>
      <trkpt lat="48.15796" lon="3.26184">
        <ele>88</ele>
        <time>2019-12-30T15:03:51+01:00</time>
      </trkpt>
      <trkpt lat="48.15786" lon="3.26184">
        <ele>89</ele>
        <time>2019-12-30T15:03:56+01:00</time>
      </trkpt>
      <trkpt lat="48.15779" lon="3.26191">
        <ele>89</ele>
        <time>2019-12-30T15:04:01+01:00</time>
      </trkpt>
      <trkpt lat="48.15777" lon="3.26196">
        <ele>89</ele>
        <time>2019-12-30T15:04:06+01:00</time>
      </trkpt>
      <trkpt lat="48.1575" lon="3.26182">
        <ele>90</ele>
        <time>2019-12-30T15:04:11+01:00</time>
      </trkpt>
      <trkpt lat="48.15725" lon="3.26169">
        <ele>89</ele>
        <time>2019-12-30T15:04:16+01:00</time>
      </trkpt>
      <trkpt lat="48.15712" lon="3.26162">
        <ele>89</ele>
        <time>2019-12-30T15:04:21+01:00</time>
      </trkpt>
      <trkpt lat="48.15714" lon="3.26148">
        <ele>88</ele>
        <time>2019-12-30T15:04:26+01:00</time>
      </trkpt>
      <trkpt lat="48.15719" lon="3.26134">
        <ele>88</ele>
        <time>2019-12-30T15:04:31+01:00</time>
      </trkpt>
      <trkpt lat="48.15697" lon="3.26124">
        <ele>87</ele>
        <time>2019-12-30T15:04:36+01:00</time>
      </trkpt>
      <trkpt lat="48.15653" lon="3.26102">
        <ele>86</ele>
        <time>2019-12-30T15:04:41+01:00</time>
      </trkpt>
      <trkpt lat="48.15633" lon="3.26076">
        <ele>86</ele>
        <time>2019-12-30T15:04:46+01:00</time>
      </trkpt>
      <trkpt lat="48.15618" lon="3.2605">
        <ele>87</ele>
        <time>2019-12-30T15:04:51+01:00</time>
      </trkpt>
      <trkpt lat="48.15611" lon="3.26073">
        <ele>87</ele>
        <time>2019-12-30T15:04:56+01:00</time>
      </trkpt>
      <trkpt lat="48.15606" lon="3.26101">
        <ele>87</ele>
        <time>2019-12-30T15:05:01+01:00</time>
      </trkpt>
      <trkpt lat="48.15604" lon="3.26109">
        <ele>87</ele>
        <time>2019-12-30T15:05:06+01:00</time>
      </trkpt>
      <trkpt lat="48.15588" lon="3.26101">
        <ele>87</ele>
        <time>2019-12-30T15:05:11+01:00</time>
      </trkpt>
      <trkpt lat="48.15579" lon="3.26097">
        <ele>87</ele>
        <time>2019-12-30T15:05:16+01:00</time>
      </trkpt>
      <trkpt lat="48.1557" lon="3.26094">
        <ele>87</ele>
        <time>2019-12-30T15:05:21+01:00</time>
      </trkpt>
      <trkpt lat="48.15554" lon="3.26088">
        <ele>87</ele>
        <time>2019-12-30T15:05:26+01:00</time>
      </trkpt>
      <trkpt lat="48.15544" lon="3.26083">
        <ele>87</ele>
        <time>2019-12-30T15:05:31+01:00</time>
      </trkpt>
      <trkpt lat="48.15534" lon="3.26127">
        <ele>87</ele>
        <time>2019-12-30T15:05:36+01:00</time>
      </trkpt>
      <trkpt lat="48.15521" lon="3.26158">
        <ele>86</ele>
        <time>2019-12-30T15:05:41+01:00</time>
      </trkpt>
      <trkpt lat="48.15511" lon="3.26182">
        <ele>86</ele>
        <time>2019-12-30T15:05:46+01:00</time>
      </trkpt>
      <trkpt lat="48.15484" lon="3.26253">
        <ele>84</ele>
        <time>2019-12-30T15:05:51+01:00</time>
      </trkpt>
      <trkpt lat="48.15464" lon="3.26298">
        <ele>84</ele>
        <time>2019-12-30T15:05:56+01:00</time>
      </trkpt>
      <trkpt lat="48.15455" lon="3.2632">
        <ele>83</ele>
        <time>2019-12-30T15:06:01+01:00</time>
      </trkpt>
      <trkpt lat="48.15446" lon="3.26347">
        <ele>83</ele>
        <time>2019-12-30T15:06:06+01:00</time>
      </trkpt>
      <trkpt lat="48.1544" lon="3.26377">
        <ele>83</ele>
        <time>2019-12-30T15:06:11+01:00</time>
      </trkpt>
      <trkpt lat="48.1544" lon="3.26403">
        <ele>82</ele>
        <time>2019-12-30T15:06:16+01:00</time>
      </trkpt>
      <trkpt lat="48.15208" lon="3.26308">
        <ele>85</ele>
        <time>2019-12-30T15:06:21+01:00</time>
      </trkpt>
      <trkpt lat="48.15183" lon="3.26297">
        <ele>86</ele>
        <time>2019-12-30T15:06:26+01:00</time>
      </trkpt>
      <trkpt lat="48.15155" lon="3.26276">
        <ele>87</ele>
        <time>2019-12-30T15:06:31+01:00</time>
      </trkpt>
      <trkpt lat="48.15128" lon="3.26254">
        <ele>87</ele>
        <time>2019-12-30T15:06:36+01:00</time>
      </trkpt>
      <trkpt lat="48.15047" lon="3.26187">
        <ele>88</ele>
        <time>2019-12-30T15:06:41+01:00</time>
      </trkpt>
      <trkpt lat="48.14999" lon="3.26149">
        <ele>88</ele>
        <time>2019-12-30T15:06:46+01:00</time>
      </trkpt>
      <trkpt lat="48.14915" lon="3.26082">
        <ele>88</ele>
        <time>2019-12-30T15:06:51+01:00</time>
      </trkpt>
      <trkpt lat="48.14869" lon="3.2604">
        <ele>87</ele>
        <time>2019-12-30T15:06:56+01:00</time>
      </trkpt>
      <trkpt lat="48.14839" lon="3.2601">
        <ele>86</ele>
        <time>2019-12-30T15:07:01+01:00</time>
      </trkpt>
      <trkpt lat="48.14827" lon="3.26">
        <ele>86</ele>
        <time>2019-12-30T15:07:06+01:00</time>
      </trkpt>
      <trkpt lat="48.14808" lon="3.26061">
        <ele>87</ele>
        <time>2019-12-30T15:07:11+01:00</time>
      </trkpt>
      <trkpt lat="48.14795" lon="3.26096">
        <ele>87</ele>
        <time>2019-12-30T15:07:16+01:00</time>
      </trkpt>
      <trkpt lat="48.14781" lon="3.26127">
        <ele>87</ele>
        <time>2019-12-30T15:07:21+01:00</time>
      </trkpt>
      <trkpt lat="48.14761" lon="3.26168">
        <ele>88</ele>
        <time>2019-12-30T15:07:26+01:00</time>
      </trkpt>
      <trkpt lat="48.14738" lon="3.26197">
        <ele>89</ele>
        <time>2019-12-30T15:07:31+01:00</time>
      </trkpt>
      <trkpt lat="48.14711" lon="3.26225">
        <ele>90</ele>
        <time>2019-12-30T15:07:36+01:00</time>
      </trkpt>
      <trkpt lat="48.1466" lon="3.26262">
        <ele>91</ele>
        <time>2019-12-30T15:07:41+01:00</time>
      </trkpt>
      <trkpt lat="48.14611" lon="3.26296">
        <ele>92</ele>
        <time>2019-12-30T15:07:46+01:00</time>
      </trkpt>
      <trkpt lat="48.14596" lon="3.26308">
        <ele>92</ele>
        <time>2019-12-30T15:07:51+01:00</time>
      </trkpt>
      <trkpt lat="48.14575" lon="3.26341">
        <ele>92</ele>
        <time>2019-12-30T15:07:56+01:00</time>
      </trkpt>
      <trkpt lat="48.14547" lon="3.26411">
        <ele>91</ele>
        <time>2019-12-30T15:08:01+01:00</time>
      </trkpt>
      <trkpt lat="48.14533" lon="3.26451">
        <ele>91</ele>
        <time>2019-12-30T15:08:06+01:00</time>
      </trkpt>
      <trkpt lat="48.14527" lon="3.26472">
        <ele>91</ele>
        <time>2019-12-30T15:08:11+01:00</time>
      </trkpt>
      <trkpt lat="48.14523" lon="3.2649">
        <ele>91</ele>
        <time>2019-12-30T15:08:16+01:00</time>
      </trkpt>
      <trkpt lat="48.14521" lon="3.26512">
        <ele>91</ele>
        <time>2019-12-30T15:08:21+01:00</time>
      </trkpt>
      <trkpt lat="48.14523" lon="3.26539">
        <ele>91</ele>
        <time>2019-12-30T15:08:26+01:00</time>
      </trkpt>
      <trkpt lat="48.14525" lon="3.26561">
        <ele>91</ele>
        <time>2019-12-30T15:08:31+01:00</time>
      </trkpt>
      <trkpt lat="48.14523" lon="3.2658">
        <ele>91</ele>
        <time>2019-12-30T15:08:36+01:00</time>
      </trkpt>
      <trkpt lat="48.14521" lon="3.266">
        <ele>91</ele>
        <time>2019-12-30T15:08:41+01:00</time>
      </trkpt>
      <trkpt lat="48.14498" lon="3.26598">
        <ele>92</ele>
        <time>2019-12-30T15:08:46+01:00</time>
      </trkpt>
      <trkpt lat="48.14475" lon="3.26592">
        <ele>92</ele>
        <time>2019-12-30T15:08:51+01:00</time>
      </trkpt>
      <trkpt lat="48.14423" lon="3.26572">
        <ele>92</ele>
        <time>2019-12-30T15:08:56+01:00</time>
      </trkpt>
      <trkpt lat="48.14389" lon="3.2657">
        <ele>93</ele>
        <time>2019-12-30T15:09:01+01:00</time>
      </trkpt>
      <trkpt lat="48.14358" lon="3.26569">
        <ele>94</ele>
        <time>2019-12-30T15:09:06+01:00</time>
      </trkpt>
      <trkpt lat="48.1434" lon="3.26568">
        <ele>94</ele>
        <time>2019-12-30T15:09:11+01:00</time>
      </trkpt>
      <trkpt lat="48.14324" lon="3.26572">
        <ele>95</ele>
        <time>2019-12-30T15:09:16+01:00</time>
      </trkpt>
      <trkpt lat="48.14296" lon="3.26531">
        <ele>97</ele>
        <time>2019-12-30T15:09:21+01:00</time>
      </trkpt>
      <trkpt lat="48.14257" lon="3.26486">
        <ele>99</ele>
        <time>2019-12-30T15:09:26+01:00</time>
      </trkpt>
      <trkpt lat="48.14246" lon="3.26479">
        <ele>100</ele>
        <time>2019-12-30T15:09:31+01:00</time>
      </trkpt>
      <trkpt lat="48.14224" lon="3.26475">
        <ele>101</ele>
        <time>2019-12-30T15:09:36+01:00</time>
      </trkpt>
      <trkpt lat="48.14192" lon="3.26459">
        <ele>102</ele>
        <time>2019-12-30T15:09:41+01:00</time>
      </trkpt>
      <trkpt lat="48.1412" lon="3.26426">
        <ele>106</ele>
        <time>2019-12-30T15:09:46+01:00</time>
      </trkpt>
      <trkpt lat="48.14048" lon="3.26395">
        <ele>107</ele>
        <time>2019-12-30T15:09:51+01:00</time>
      </trkpt>
      <trkpt lat="48.14022" lon="3.26381">
        <ele>108</ele>
        <time>2019-12-30T15:09:56+01:00</time>
      </trkpt>
      <trkpt lat="48.14016" lon="3.26368">
        <ele>108</ele>
        <time>2019-12-30T15:10:01+01:00</time>
      </trkpt>
      <trkpt lat="48.14014" lon="3.26351">
        <ele>109</ele>
        <time>2019-12-30T15:10:06+01:00</time>
      </trkpt>
      <trkpt lat="48.14017" lon="3.2628">
        <ele>108</ele>
        <time>2019-12-30T15:10:11+01:00</time>
      </trkpt>
      <trkpt lat="48.14016" lon="3.26251">
        <ele>108</ele>
        <time>2019-12-30T15:10:16+01:00</time>
      </trkpt>
      <trkpt lat="48.14015" lon="3.26225">
        <ele>107</ele>
        <time>2019-12-30T15:10:21+01:00</time>
      </trkpt>
      <trkpt lat="48.13969" lon="3.25963">
        <ele>105</ele>
        <time>2019-12-30T15:10:26+01:00</time>
      </trkpt>
      <trkpt lat="48.13952" lon="3.25862">
        <ele>107</ele>
        <time>2019-12-30T15:10:31+01:00</time>
      </trkpt>
      <trkpt lat="48.13917" lon="3.25734">
        <ele>112</ele>
        <time>2019-12-30T15:10:36+01:00</time>
      </trkpt>
      <trkpt lat="48.13894" lon="3.25647">
        <ele>112</ele>
        <time>2019-12-30T15:10:41+01:00</time>
      </trkpt>
      <trkpt lat="48.13879" lon="3.2562">
        <ele>111</ele>
        <time>2019-12-30T15:10:46+01:00</time>
      </trkpt>
      <trkpt lat="48.13862" lon="3.25581">
        <ele>110</ele>
        <time>2019-12-30T15:10:51+01:00</time>
      </trkpt>
      <trkpt lat="48.13848" lon="3.25547">
        <ele>110</ele>
        <time>2019-12-30T15:10:56+01:00</time>
      </trkpt>
      <trkpt lat="48.13827" lon="3.25508">
        <ele>110</ele>
        <time>2019-12-30T15:11:01+01:00</time>
      </trkpt>
      <trkpt lat="48.13804" lon="3.2547">
        <ele>108</ele>
        <time>2019-12-30T15:11:06+01:00</time>
      </trkpt>
      <trkpt lat="48.1378" lon="3.25413">
        <ele>106</ele>
        <time>2019-12-30T15:11:11+01:00</time>
      </trkpt>
      <trkpt lat="48.13776" lon="3.254">
        <ele>105</ele>
        <time>2019-12-30T15:11:16+01:00</time>
      </trkpt>
      <trkpt lat="48.13774" lon="3.25385">
        <ele>105</ele>
        <time>2019-12-30T15:11:21+01:00</time>
      </trkpt>
      <trkpt lat="48.13801" lon="3.25331">
        <ele>104</ele>
        <time>2019-12-30T15:11:26+01:00</time>
      </trkpt>
      <trkpt lat="48.13787" lon="3.25192">
        <ele>107</ele>
        <time>2019-12-30T15:11:31+01:00</time>
      </trkpt>
      <trkpt lat="48.13785" lon="3.25165">
        <ele>108</ele>
        <time>2019-12-30T15:11:36+01:00</time>
      </trkpt>
      <trkpt lat="48.13792" lon="3.25084">
        <ele>113</ele>
        <time>2019-12-30T15:11:41+01:00</time>
      </trkpt>
      <trkpt lat="48.13792" lon="3.25038">
        <ele>115</ele>
        <time>2019-12-30T15:11:46+01:00</time>
      </trkpt>
      <trkpt lat="48.13791" lon="3.24982">
        <ele>116</ele>
        <time>2019-12-30T15:11:51+01:00</time>
      </trkpt>
      <trkpt lat="48.13752" lon="3.24894">
        <ele>120</ele>
        <time>2019-12-30T15:11:56+01:00</time>
      </trkpt>
      <trkpt lat="48.1373" lon="3.24838">
        <ele>123</ele>
        <time>2019-12-30T15:12:01+01:00</time>
      </trkpt>
      <trkpt lat="48.13721" lon="3.24816">
        <ele>124</ele>
        <time>2019-12-30T15:12:06+01:00</time>
      </trkpt>
      <trkpt lat="48.13714" lon="3.24794">
        <ele>125</ele>
        <time>2019-12-30T15:12:11+01:00</time>
      </trkpt>
      <trkpt lat="48.13712" lon="3.24769">
        <ele>126</ele>
        <time>2019-12-30T15:12:16+01:00</time>
      </trkpt>
      <trkpt lat="48.1371" lon="3.24722">
        <ele>127</ele>
        <time>2019-12-30T15:12:21+01:00</time>
      </trkpt>
      <trkpt lat="48.13712" lon="3.24694">
        <ele>128</ele>
        <time>2019-12-30T15:12:26+01:00</time>
      </trkpt>
      <trkpt lat="48.13721" lon="3.24657">
        <ele>130</ele>
        <time>2019-12-30T15:12:31+01:00</time>
      </trkpt>
      <trkpt lat="48.13732" lon="3.24626">
        <ele>133</ele>
        <time>2019-12-30T15:12:36+01:00</time>
      </trkpt>
      <trkpt lat="48.13741" lon="3.24592">
        <ele>136</ele>
        <time>2019-12-30T15:12:41+01:00</time>
      </trkpt>
      <trkpt lat="48.13743" lon="3.24559">
        <ele>138</ele>
        <time>2019-12-30T15:12:46+01:00</time>
      </trkpt>
      <trkpt lat="48.13742" lon="3.24485">
        <ele>140</ele>
        <time>2019-12-30T15:12:51+01:00</time>
      </trkpt>
      <trkpt lat="48.13741" lon="3.24438">
        <ele>142</ele>
        <time>2019-12-30T15:12:56+01:00</time>
      </trkpt>
      <trkpt lat="48.13743" lon="3.24391">
        <ele>143</ele>
        <time>2019-12-30T15:13:01+01:00</time>
      </trkpt>
      <trkpt lat="48.13744" lon="3.24363">
        <ele>143</ele>
        <time>2019-12-30T15:13:06+01:00</time>
      </trkpt>
      <trkpt lat="48.13746" lon="3.24335">
        <ele>143</ele>
        <time>2019-12-30T15:13:11+01:00</time>
      </trkpt>
      <trkpt lat="48.13749" lon="3.24281">
        <ele>143</ele>
        <time>2019-12-30T15:13:16+01:00</time>
      </trkpt>
      <trkpt lat="48.13756" lon="3.24239">
        <ele>143</ele>
        <time>2019-12-30T15:13:21+01:00</time>
      </trkpt>
      <trkpt lat="48.13759" lon="3.24221">
        <ele>142</ele>
        <time>2019-12-30T15:13:26+01:00</time>
      </trkpt>
      <trkpt lat="48.13827" lon="3.24223">
        <ele>141</ele>
        <time>2019-12-30T15:13:31+01:00</time>
      </trkpt>
      <trkpt lat="48.13896" lon="3.2423">
        <ele>138</ele>
        <time>2019-12-30T15:13:36+01:00</time>
      </trkpt>
      <trkpt lat="48.13812" lon="3.2395">
        <ele>144</ele>
        <time>2019-12-30T15:13:41+01:00</time>
      </trkpt>
      <trkpt lat="48.13807" lon="3.23929">
        <ele>144</ele>
        <time>2019-12-30T15:13:46+01:00</time>
      </trkpt>
      <trkpt lat="48.138" lon="3.23911">
        <ele>144</ele>
        <time>2019-12-30T15:13:51+01:00</time>
      </trkpt>
      <trkpt lat="48.1379" lon="3.23892">
        <ele>145</ele>
        <time>2019-12-30T15:13:56+01:00</time>
      </trkpt>
      <trkpt lat="48.13795" lon="3.23879">
        <ele>146</ele>
        <time>2019-12-30T15:14:01+01:00</time>
      </trkpt>
      <trkpt lat="48.13791" lon="3.23863">
        <ele>147</ele>
        <time>2019-12-30T15:14:06+01:00</time>
      </trkpt>
      <trkpt lat="48.13784" lon="3.2384">
        <ele>148</ele>
        <time>2019-12-30T15:14:11+01:00</time>
      </trkpt>
      <trkpt lat="48.13778" lon="3.23813">
        <ele>150</ele>
        <time>2019-12-30T15:14:16+01:00</time>
      </trkpt>
      <trkpt lat="48.13776" lon="3.23785">
        <ele>152</ele>
        <time>2019-12-30T15:14:21+01:00</time>
      </trkpt>
      <trkpt lat="48.13777" lon="3.23753">
        <ele>154</ele>
        <time>2019-12-30T15:14:26+01:00</time>
      </trkpt>
      <trkpt lat="48.13779" lon="3.23722">
        <ele>155</ele>
        <time>2019-12-30T15:14:31+01:00</time>
      </trkpt>
      <trkpt lat="48.13788" lon="3.23658">
        <ele>157</ele>
        <time>2019-12-30T15:14:36+01:00</time>
      </trkpt>
      <trkpt lat="48.13797" lon="3.23603">
        <ele>158</ele>
        <time>2019-12-30T15:14:41+01:00</time>
      </trkpt>
      <trkpt lat="48.13798" lon="3.23543">
        <ele>160</ele>
        <time>2019-12-30T15:14:46+01:00</time>
      </trkpt>
      <trkpt lat="48.13804" lon="3.23483">
        <ele>163</ele>
        <time>2019-12-30T15:14:51+01:00</time>
      </trkpt>
      <trkpt lat="48.13805" lon="3.23422">
        <ele>166</ele>
        <time>2019-12-30T15:14:56+01:00</time>
      </trkpt>
      <trkpt lat="48.13802" lon="3.23392">
        <ele>167</ele>
        <time>2019-12-30T15:15:01+01:00</time>
      </trkpt>
      <trkpt lat="48.13793" lon="3.23319">
        <ele>168</ele>
        <time>2019-12-30T15:15:06+01:00</time>
      </trkpt>
      <trkpt lat="48.13786" lon="3.23271">
        <ele>168</ele>
        <time>2019-12-30T15:15:11+01:00</time>
      </trkpt>
      <trkpt lat="48.13778" lon="3.23218">
        <ele>168</ele>
        <time>2019-12-30T15:15:16+01:00</time>
      </trkpt>
      <trkpt lat="48.13772" lon="3.2318">
        <ele>167</ele>
        <time>2019-12-30T15:15:21+01:00</time>
      </trkpt>
      <trkpt lat="48.13767" lon="3.23155">
        <ele>167</ele>
        <time>2019-12-30T15:15:26+01:00</time>
      </trkpt>
      <trkpt lat="48.13759" lon="3.2308">
        <ele>166</ele>
        <time>2019-12-30T15:15:31+01:00</time>
      </trkpt>
      <trkpt lat="48.1377" lon="3.2304">
        <ele>168</ele>
        <time>2019-12-30T15:15:36+01:00</time>
      </trkpt>
      <trkpt lat="48.13785" lon="3.23006">
        <ele>169</ele>
        <time>2019-12-30T15:15:41+01:00</time>
      </trkpt>
      <trkpt lat="48.13814" lon="3.22958">
        <ele>172</ele>
        <time>2019-12-30T15:15:46+01:00</time>
      </trkpt>
      <trkpt lat="48.13834" lon="3.22932">
        <ele>173</ele>
        <time>2019-12-30T15:15:51+01:00</time>
      </trkpt>
      <trkpt lat="48.13844" lon="3.22914">
        <ele>174</ele>
        <time>2019-12-30T15:15:56+01:00</time>
      </trkpt>
      <trkpt lat="48.13853" lon="3.229">
        <ele>173</ele>
        <time>2019-12-30T15:16:01+01:00</time>
      </trkpt>
      <trkpt lat="48.13856" lon="3.22884">
        <ele>173</ele>
        <time>2019-12-30T15:16:06+01:00</time>
      </trkpt>
      <trkpt lat="48.13855" lon="3.22835">
        <ele>173</ele>
        <time>2019-12-30T15:16:11+01:00</time>
      </trkpt>
      <trkpt lat="48.13853" lon="3.22788">
        <ele>172</ele>
        <time>2019-12-30T15:16:16+01:00</time>
      </trkpt>
      <trkpt lat="48.13852" lon="3.22737">
        <ele>171</ele>
        <time>2019-12-30T15:16:21+01:00</time>
      </trkpt>
      <trkpt lat="48.13849" lon="3.22698">
        <ele>171</ele>
        <time>2019-12-30T15:16:26+01:00</time>
      </trkpt>
      <trkpt lat="48.1384" lon="3.22647">
        <ele>171</ele>
        <time>2019-12-30T15:16:31+01:00</time>
      </trkpt>
      <trkpt lat="48.1385" lon="3.22646">
        <ele>171</ele>
        <time>2019-12-30T15:16:36+01:00</time>
      </trkpt>
      <trkpt lat="48.13863" lon="3.22653">
        <ele>171</ele>
        <time>2019-12-30T15:16:41+01:00</time>
      </trkpt>
      <trkpt lat="48.1389" lon="3.22666">
        <ele>171</ele>
        <time>2019-12-30T15:16:46+01:00</time>
      </trkpt>
      <trkpt lat="48.13996" lon="3.22731">
        <ele>169</ele>
        <time>2019-12-30T15:16:51+01:00</time>
      </trkpt>
      <trkpt lat="48.1404" lon="3.22756">
        <ele>168</ele>
        <time>2019-12-30T15:16:56+01:00</time>
      </trkpt>
      <trkpt lat="48.14062" lon="3.2277">
        <ele>168</ele>
        <time>2019-12-30T15:17:01+01:00</time>
      </trkpt>
      <trkpt lat="48.14086" lon="3.2278">
        <ele>167</ele>
        <time>2019-12-30T15:17:06+01:00</time>
      </trkpt>
      <trkpt lat="48.14118" lon="3.22789">
        <ele>166</ele>
        <time>2019-12-30T15:17:11+01:00</time>
      </trkpt>
      <trkpt lat="48.14148" lon="3.22802">
        <ele>165</ele>
        <time>2019-12-30T15:17:16+01:00</time>
      </trkpt>
      <trkpt lat="48.14184" lon="3.22814">
        <ele>165</ele>
        <time>2019-12-30T15:17:21+01:00</time>
      </trkpt>
      <trkpt lat="48.14204" lon="3.22828">
        <ele>164</ele>
        <time>2019-12-30T15:17:26+01:00</time>
      </trkpt>
      <trkpt lat="48.14226" lon="3.22853">
        <ele>164</ele>
        <time>2019-12-30T15:17:31+01:00</time>
      </trkpt>
      <trkpt lat="48.14249" lon="3.22895">
        <ele>165</ele>
        <time>2019-12-30T15:17:36+01:00</time>
      </trkpt>
      <trkpt lat="48.14269" lon="3.22936">
        <ele>164</ele>
        <time>2019-12-30T15:17:41+01:00</time>
      </trkpt>
      <trkpt lat="48.14285" lon="3.2297">
        <ele>164</ele>
        <time>2019-12-30T15:17:46+01:00</time>
      </trkpt>
      <trkpt lat="48.1432" lon="3.22996">
        <ele>164</ele>
        <time>2019-12-30T15:17:51+01:00</time>
      </trkpt>
      <trkpt lat="48.14347" lon="3.23021">
        <ele>164</ele>
        <time>2019-12-30T15:17:56+01:00</time>
      </trkpt>
      <trkpt lat="48.14376" lon="3.23064">
        <ele>165</ele>
        <time>2019-12-30T15:18:01+01:00</time>
      </trkpt>
      <trkpt lat="48.1438" lon="3.23076">
        <ele>165</ele>
        <time>2019-12-30T15:18:06+01:00</time>
      </trkpt>
      <trkpt lat="48.14428" lon="3.2316">
        <ele>166</ele>
        <time>2019-12-30T15:18:11+01:00</time>
      </trkpt>
      <trkpt lat="48.14456" lon="3.23212">
        <ele>165</ele>
        <time>2019-12-30T15:18:16+01:00</time>
      </trkpt>
      <trkpt lat="48.14468" lon="3.2327">
        <ele>164</ele>
        <time>2019-12-30T15:18:21+01:00</time>
      </trkpt>
      <trkpt lat="48.14484" lon="3.23329">
        <ele>164</ele>
        <time>2019-12-30T15:18:26+01:00</time>
      </trkpt>
      <trkpt lat="48.14497" lon="3.23354">
        <ele>163</ele>
        <time>2019-12-30T15:18:31+01:00</time>
      </trkpt>
      <trkpt lat="48.14513" lon="3.23371">
        <ele>162</ele>
        <time>2019-12-30T15:18:36+01:00</time>
      </trkpt>
      <trkpt lat="48.14559" lon="3.23396">
        <ele>162</ele>
        <time>2019-12-30T15:18:41+01:00</time>
      </trkpt>
      <trkpt lat="48.14578" lon="3.23403">
        <ele>162</ele>
        <time>2019-12-30T15:18:46+01:00</time>
      </trkpt>
      <trkpt lat="48.14582" lon="3.23418">
        <ele>162</ele>
        <time>2019-12-30T15:18:51+01:00</time>
      </trkpt>
      <trkpt lat="48.14585" lon="3.23441">
        <ele>162</ele>
        <time>2019-12-30T15:18:56+01:00</time>
      </trkpt>
      <trkpt lat="48.14593" lon="3.23475">
        <ele>162</ele>
        <time>2019-12-30T15:19:01+01:00</time>
      </trkpt>
      <trkpt lat="48.14606" lon="3.23514">
        <ele>162</ele>
        <time>2019-12-30T15:19:06+01:00</time>
      </trkpt>
      <trkpt lat="48.14616" lon="3.23546">
        <ele>163</ele>
        <time>2019-12-30T15:19:11+01:00</time>
      </trkpt>
      <trkpt lat="48.14622" lon="3.23586">
        <ele>163</ele>
        <time>2019-12-30T15:19:16+01:00</time>
      </trkpt>
      <trkpt lat="48.14626" lon="3.23625">
        <ele>163</ele>
        <time>2019-12-30T15:19:21+01:00</time>
      </trkpt>
      <trkpt lat="48.14625" lon="3.23663">
        <ele>163</ele>
        <time>2019-12-30T15:19:26+01:00</time>
      </trkpt>
      <trkpt lat="48.14627" lon="3.23731">
        <ele>165</ele>
        <time>2019-12-30T15:19:31+01:00</time>
      </trkpt>
      <trkpt lat="48.14635" lon="3.2381">
        <ele>167</ele>
        <time>2019-12-30T15:19:36+01:00</time>
      </trkpt>
      <trkpt lat="48.14639" lon="3.23852">
        <ele>168</ele>
        <time>2019-12-30T15:19:41+01:00</time>
      </trkpt>
      <trkpt lat="48.14641" lon="3.23879">
        <ele>168</ele>
        <time>2019-12-30T15:19:46+01:00</time>
      </trkpt>
      <trkpt lat="48.1464" lon="3.23989">
        <ele>171</ele>
        <time>2019-12-30T15:19:51+01:00</time>
      </trkpt>
      <trkpt lat="48.14642" lon="3.24018">
        <ele>172</ele>
        <time>2019-12-30T15:19:56+01:00</time>
      </trkpt>
      <trkpt lat="48.14646" lon="3.24045">
        <ele>172</ele>
        <time>2019-12-30T15:20:01+01:00</time>
      </trkpt>
      <trkpt lat="48.14663" lon="3.24098">
        <ele>172</ele>
        <time>2019-12-30T15:20:06+01:00</time>
      </trkpt>
      <trkpt lat="48.14686" lon="3.24149">
        <ele>170</ele>
        <time>2019-12-30T15:20:11+01:00</time>
      </trkpt>
      <trkpt lat="48.14697" lon="3.2417">
        <ele>170</ele>
        <time>2019-12-30T15:20:16+01:00</time>
      </trkpt>
      <trkpt lat="48.14708" lon="3.24192">
        <ele>170</ele>
        <time>2019-12-30T15:20:21+01:00</time>
      </trkpt>
      <trkpt lat="48.14725" lon="3.24238">
        <ele>170</ele>
        <time>2019-12-30T15:20:26+01:00</time>
      </trkpt>
      <trkpt lat="48.14743" lon="3.24278">
        <ele>170</ele>
        <time>2019-12-30T15:20:31+01:00</time>
      </trkpt>
      <trkpt lat="48.14768" lon="3.24326">
        <ele>170</ele>
        <time>2019-12-30T15:20:36+01:00</time>
      </trkpt>
      <trkpt lat="48.14804" lon="3.24385">
        <ele>169</ele>
        <time>2019-12-30T15:20:41+01:00</time>
      </trkpt>
      <trkpt lat="48.14827" lon="3.24406">
        <ele>168</ele>
        <time>2019-12-30T15:20:46+01:00</time>
      </trkpt>
      <trkpt lat="48.14849" lon="3.24423">
        <ele>167</ele>
        <time>2019-12-30T15:20:51+01:00</time>
      </trkpt>
      <trkpt lat="48.14891" lon="3.24454">
        <ele>166</ele>
        <time>2019-12-30T15:20:56+01:00</time>
      </trkpt>
      <trkpt lat="48.14907" lon="3.24471">
        <ele>166</ele>
        <time>2019-12-30T15:21:01+01:00</time>
      </trkpt>
      <trkpt lat="48.1492" lon="3.24494">
        <ele>164</ele>
        <time>2019-12-30T15:21:06+01:00</time>
      </trkpt>
      <trkpt lat="48.14931" lon="3.24515">
        <ele>164</ele>
        <time>2019-12-30T15:21:11+01:00</time>
      </trkpt>
      <trkpt lat="48.14938" lon="3.24539">
        <ele>162</ele>
        <time>2019-12-30T15:21:16+01:00</time>
      </trkpt>
      <trkpt lat="48.14944" lon="3.24561">
        <ele>161</ele>
        <time>2019-12-30T15:21:21+01:00</time>
      </trkpt>
      <trkpt lat="48.1495" lon="3.24589">
        <ele>160</ele>
        <time>2019-12-30T15:21:26+01:00</time>
      </trkpt>
      <trkpt lat="48.14964" lon="3.24659">
        <ele>157</ele>
        <time>2019-12-30T15:21:31+01:00</time>
      </trkpt>
      <trkpt lat="48.14977" lon="3.24703">
        <ele>155</ele>
        <time>2019-12-30T15:21:36+01:00</time>
      </trkpt>
      <trkpt lat="48.14984" lon="3.24724">
        <ele>154</ele>
        <time>2019-12-30T15:21:41+01:00</time>
      </trkpt>
      <trkpt lat="48.14993" lon="3.24745">
        <ele>153</ele>
        <time>2019-12-30T15:21:46+01:00</time>
      </trkpt>
      <trkpt lat="48.15008" lon="3.24765">
        <ele>152</ele>
        <time>2019-12-30T15:21:51+01:00</time>
      </trkpt>
      <trkpt lat="48.15023" lon="3.24786">
        <ele>151</ele>
        <time>2019-12-30T15:21:56+01:00</time>
      </trkpt>
      <trkpt lat="48.15045" lon="3.24814">
        <ele>150</ele>
        <time>2019-12-30T15:22:01+01:00</time>
      </trkpt>
      <trkpt lat="48.15066" lon="3.24847">
        <ele>148</ele>
        <time>2019-12-30T15:22:06+01:00</time>
      </trkpt>
      <trkpt lat="48.15087" lon="3.24879">
        <ele>147</ele>
        <time>2019-12-30T15:22:11+01:00</time>
      </trkpt>
      <trkpt lat="48.15108" lon="3.24909">
        <ele>145</ele>
        <time>2019-12-30T15:22:16+01:00</time>
      </trkpt>
      <trkpt lat="48.15131" lon="3.24943">
        <ele>144</ele>
        <time>2019-12-30T15:22:21+01:00</time>
      </trkpt>
      <trkpt lat="48.15142" lon="3.24963">
        <ele>143</ele>
        <time>2019-12-30T15:22:26+01:00</time>
      </trkpt>
      <trkpt lat="48.15151" lon="3.24983">
        <ele>143</ele>
        <time>2019-12-30T15:22:31+01:00</time>
      </trkpt>
      <trkpt lat="48.15165" lon="3.25022">
        <ele>141</ele>
        <time>2019-12-30T15:22:36+01:00</time>
      </trkpt>
      <trkpt lat="48.15173" lon="3.2504">
        <ele>139</ele>
        <time>2019-12-30T15:22:41+01:00</time>
      </trkpt>
      <trkpt lat="48.15181" lon="3.25057">
        <ele>138</ele>
        <time>2019-12-30T15:22:46+01:00</time>
      </trkpt>
      <trkpt lat="48.15195" lon="3.2508">
        <ele>136</ele>
        <time>2019-12-30T15:22:51+01:00</time>
      </trkpt>
      <trkpt lat="48.15211" lon="3.25103">
        <ele>134</ele>
        <time>2019-12-30T15:22:56+01:00</time>
      </trkpt>
      <trkpt lat="48.15224" lon="3.25119">
        <ele>133</ele>
        <time>2019-12-30T15:23:01+01:00</time>
      </trkpt>
      <trkpt lat="48.15237" lon="3.2513">
        <ele>131</ele>
        <time>2019-12-30T15:23:06+01:00</time>
      </trkpt>
      <trkpt lat="48.15257" lon="3.25147">
        <ele>129</ele>
        <time>2019-12-30T15:23:11+01:00</time>
      </trkpt>
      <trkpt lat="48.15286" lon="3.25157">
        <ele>126</ele>
        <time>2019-12-30T15:23:16+01:00</time>
      </trkpt>
      <trkpt lat="48.15322" lon="3.25169">
        <ele>123</ele>
        <time>2019-12-30T15:23:21+01:00</time>
      </trkpt>
      <trkpt lat="48.1536" lon="3.25184">
        <ele>118</ele>
        <time>2019-12-30T15:23:26+01:00</time>
      </trkpt>
      <trkpt lat="48.15379" lon="3.25189">
        <ele>116</ele>
        <time>2019-12-30T15:23:31+01:00</time>
      </trkpt>
      <trkpt lat="48.15399" lon="3.25198">
        <ele>114</ele>
        <time>2019-12-30T15:23:36+01:00</time>
      </trkpt>
      <trkpt lat="48.15425" lon="3.25211">
        <ele>113</ele>
        <time>2019-12-30T15:23:41+01:00</time>
      </trkpt>
      <trkpt lat="48.15452" lon="3.25222">
        <ele>111</ele>
        <time>2019-12-30T15:23:46+01:00</time>
      </trkpt>
      <trkpt lat="48.15492" lon="3.25228">
        <ele>109</ele>
        <time>2019-12-30T15:23:51+01:00</time>
      </trkpt>
      <trkpt lat="48.15532" lon="3.25235">
        <ele>107</ele>
        <time>2019-12-30T15:23:56+01:00</time>
      </trkpt>
      <trkpt lat="48.15573" lon="3.25248">
        <ele>105</ele>
        <time>2019-12-30T15:24:01+01:00</time>
      </trkpt>
      <trkpt lat="48.1559" lon="3.25255">
        <ele>105</ele>
        <time>2019-12-30T15:24:06+01:00</time>
      </trkpt>
      <trkpt lat="48.15604" lon="3.25262">
        <ele>104</ele>
        <time>2019-12-30T15:24:11+01:00</time>
      </trkpt>
      <trkpt lat="48.15617" lon="3.25268">
        <ele>104</ele>
        <time>2019-12-30T15:24:16+01:00</time>
      </trkpt>
      <trkpt lat="48.15626" lon="3.25276">
        <ele>103</ele>
        <time>2019-12-30T15:24:21+01:00</time>
      </trkpt>
      <trkpt lat="48.15672" lon="3.25466">
        <ele>103</ele>
        <time>2019-12-30T15:24:26+01:00</time>
      </trkpt>
      <trkpt lat="48.15674" lon="3.25484">
        <ele>102</ele>
        <time>2019-12-30T15:24:31+01:00</time>
      </trkpt>
      <trkpt lat="48.15653" lon="3.2551">
        <ele>100</ele>
        <time>2019-12-30T15:24:36+01:00</time>
      </trkpt>
      <trkpt lat="48.15659" lon="3.25516">
        <ele>100</ele>
        <time>2019-12-30T15:24:41+01:00</time>
      </trkpt>
      <trkpt lat="48.15666" lon="3.25527">
        <ele>100</ele>
        <time>2019-12-30T15:24:46+01:00</time>
      </trkpt>
      <trkpt lat="48.15673" lon="3.25541">
        <ele>100</ele>
        <time>2019-12-30T15:24:51+01:00</time>
      </trkpt>
      <trkpt lat="48.15677" lon="3.25545">
        <ele>99</ele>
        <time>2019-12-30T15:24:56+01:00</time>
      </trkpt>
      <trkpt lat="48.15673" lon="3.25564">
        <ele>99</ele>
        <time>2019-12-30T15:25:01+01:00</time>
      </trkpt>
      <trkpt lat="48.15671" lon="3.25575">
        <ele>98</ele>
        <time>2019-12-30T15:25:06+01:00</time>
      </trkpt>
      <trkpt lat="48.15677" lon="3.2558">
        <ele>98</ele>
        <time>2019-12-30T15:25:11+01:00</time>
      </trkpt>
      <trkpt lat="48.15686" lon="3.25586">
        <ele>98</ele>
        <time>2019-12-30T15:25:16+01:00</time>
      </trkpt>
      <trkpt lat="48.15685" lon="3.25597">
        <ele>98</ele>
        <time>2019-12-30T15:25:21+01:00</time>
      </trkpt>
      <trkpt lat="48.15681" lon="3.25606">
        <ele>98</ele>
        <time>2019-12-30T15:25:26+01:00</time>
      </trkpt>
      <trkpt lat="48.15694" lon="3.25612">
        <ele>98</ele>
        <time>2019-12-30T15:25:31+01:00</time>
      </trkpt>
      <trkpt lat="48.15717" lon="3.25621">
        <ele>98</ele>
        <time>2019-12-30T15:25:36+01:00</time>
      </trkpt>
      <trkpt lat="48.15713" lon="3.25665">
        <ele>97</ele>
        <time>2019-12-30T15:25:41+01:00</time>
      </trkpt>
      <trkpt lat="48.15709" lon="3.257">
        <ele>96</ele>
        <time>2019-12-30T15:25:46+01:00</time>
      </trkpt>
      <trkpt lat="48.15743" lon="3.25709">
        <ele>96</ele>
        <time>2019-12-30T15:25:51+01:00</time>
      </trkpt>
      <trkpt lat="48.15759" lon="3.25714">
        <ele>96</ele>
        <time>2019-12-30T15:25:56+01:00</time>
      </trkpt>
      <trkpt lat="48.15775" lon="3.25719">
        <ele>96</ele>
        <time>2019-12-30T15:26:01+01:00</time>
      </trkpt>
      <trkpt lat="48.15798" lon="3.25726">
        <ele>96</ele>
        <time>2019-12-30T15:26:06+01:00</time>
      </trkpt>
      <trkpt lat="48.15821" lon="3.25736">
        <ele>96</ele>
        <time>2019-12-30T15:26:11+01:00</time>
      </trkpt>
      <trkpt lat="48.15832" lon="3.25741">
        <ele>96</ele>
        <time>2019-12-30T15:26:16+01:00</time>
      </trkpt>
      <trkpt lat="48.1584" lon="3.25752">
        <ele>96</ele>
        <time>2019-12-30T15:26:21+01:00</time>
      </trkpt>
      <trkpt lat="48.15871" lon="3.25785">
        <ele>93</ele>
        <time>2019-12-30T15:26:26+01:00</time>
      </trkpt>
      <trkpt lat="48.15899" lon="3.25817">
        <ele>89</ele>
        <time>2019-12-30T15:26:31+01:00</time>
      </trkpt>
      <trkpt lat="48.15917" lon="3.25837">
        <ele>87</ele>
        <time>2019-12-30T15:26:36+01:00</time>
      </trkpt>
      <trkpt lat="48.15929" lon="3.25847">
        <ele>86</ele>
        <time>2019-12-30T15:26:41+01:00</time>
      </trkpt>
      <trkpt lat="48.15937" lon="3.25848">
        <ele>86</ele>
        <time>2019-12-30T15:26:46+01:00</time>
      </trkpt>
      <trkpt lat="48.15945" lon="3.25837">
        <ele>86</ele>
        <time>2019-12-30T15:26:51+01:00</time>
      </trkpt>
      <trkpt lat="48.15951" lon="3.25824">
        <ele>86</ele>
        <time>2019-12-30T15:26:56+01:00</time>
      </trkpt>
      <trkpt lat="48.15954" lon="3.2581">
        <ele>86</ele>
        <time>2019-12-30T15:27:01+01:00</time>
      </trkpt>
      <trkpt lat="48.15963" lon="3.2576">
        <ele>86</ele>
        <time>2019-12-30T15:27:06+01:00</time>
      </trkpt>
      <trkpt lat="48.15965" lon="3.25737">
        <ele>86</ele>
        <time>2019-12-30T15:27:11+01:00</time>
      </trkpt>
      <trkpt lat="48.15972" lon="3.25704">
        <ele>86</ele>
        <time>2019-12-30T15:27:16+01:00</time>
      </trkpt>
      <trkpt lat="48.15974" lon="3.25689">
        <ele>86</ele>
        <time>2019-12-30T15:27:21+01:00</time>
      </trkpt>
      <trkpt lat="48.15976" lon="3.25675">
        <ele>86</ele>
        <time>2019-12-30T15:27:26+01:00</time>
      </trkpt>
      <trkpt lat="48.15984" lon="3.25656">
        <ele>86</ele>
        <time>2019-12-30T15:27:31+01:00</time>
      </trkpt>
      <trkpt lat="48.16002" lon="3.25621">
        <ele>85</ele>
        <time>2019-12-30T15:27:36+01:00</time>
      </trkpt>
      <trkpt lat="48.16005" lon="3.25628">
        <ele>85</ele>
        <time>2019-12-30T15:27:41+01:00</time>
      </trkpt>
      <trkpt lat="48.16009" lon="3.25663">
        <ele>85</ele>
        <time>2019-12-30T15:27:46+01:00</time>
      </trkpt>
      <trkpt lat="48.16012" lon="3.25695">
        <ele>84</ele>
        <time>2019-12-30T15:27:51+01:00</time>
      </trkpt>
      <trkpt lat="48.16013" lon="3.25719">
        <ele>84</ele>
        <time>2019-12-30T15:27:56+01:00</time>
      </trkpt>
      <trkpt lat="48.16014" lon="3.25744">
        <ele>83</ele>
        <time>2019-12-30T15:28:01+01:00</time>
      </trkpt>
      <trkpt lat="48.16016" lon="3.25758">
        <ele>83</ele>
        <time>2019-12-30T15:28:06+01:00</time>
      </trkpt>
      <trkpt lat="48.1602" lon="3.25769">
        <ele>84</ele>
        <time>2019-12-30T15:28:11+01:00</time>
      </trkpt>
      <trkpt lat="48.16022" lon="3.25792">
        <ele>84</ele>
        <time>2019-12-30T15:28:16+01:00</time>
      </trkpt>
      <trkpt lat="48.16018" lon="3.25811">
        <ele>84</ele>
        <time>2019-12-30T15:28:21+01:00</time>
      </trkpt>
      <trkpt lat="48.16019" lon="3.25831">
        <ele>84</ele>
        <time>2019-12-30T15:28:26+01:00</time>
      </trkpt>
      <trkpt lat="48.16022" lon="3.25851">
        <ele>84</ele>
        <time>2019-12-30T15:28:31+01:00</time>
      </trkpt>
      <trkpt lat="48.16027" lon="3.2587">
        <ele>84</ele>
        <time>2019-12-30T15:28:36+01:00</time>
      </trkpt>
      <trkpt lat="48.16035" lon="3.25886">
        <ele>85</ele>
        <time>2019-12-30T15:28:41+01:00</time>
      </trkpt>
      <trkpt lat="48.16043" lon="3.2591">
        <ele>85</ele>
        <time>2019-12-30T15:28:46+01:00</time>
      </trkpt>
      <trkpt lat="48.1605" lon="3.25927">
        <ele>85</ele>
        <time>2019-12-30T15:28:51+01:00</time>
      </trkpt>
      <trkpt lat="48.1605" lon="3.25948">
        <ele>85</ele>
        <time>2019-12-30T15:28:56+01:00</time>
      </trkpt>
      <trkpt lat="48.16045" lon="3.25969">
        <ele>85</ele>
        <time>2019-12-30T15:29:01+01:00</time>
      </trkpt>
      <trkpt lat="48.16037" lon="3.25984">
        <ele>85</ele>
        <time>2019-12-30T15:29:06+01:00</time>
      </trkpt>
      <trkpt lat="48.1604" lon="3.25993">
        <ele>85</ele>
        <time>2019-12-30T15:29:11+01:00</time>
      </trkpt>
      <trkpt lat="48.16042" lon="3.26003">
        <ele>85</ele>
        <time>2019-12-30T15:29:16+01:00</time>
      </trkpt>
      <trkpt lat="48.16038" lon="3.2601">
        <ele>85</ele>
        <time>2019-12-30T15:29:21+01:00</time>
      </trkpt>
      <trkpt lat="48.16032" lon="3.26017">
        <ele>84</ele>
        <time>2019-12-30T15:29:26+01:00</time>
      </trkpt>
      <trkpt lat="48.1604" lon="3.26032">
        <ele>84</ele>
        <time>2019-12-30T15:29:31+01:00</time>
      </trkpt>
      <trkpt lat="48.16044" lon="3.26042">
        <ele>84</ele>
        <time>2019-12-30T15:29:36+01:00</time>
      </trkpt>
      <trkpt lat="48.16042" lon="3.2606">
        <ele>84</ele>
        <time>2019-12-30T15:29:41+01:00</time>
      </trkpt>
      <trkpt lat="48.16039" lon="3.26076">
        <ele>83</ele>
        <time>2019-12-30T15:29:46+01:00</time>
      </trkpt>
      <trkpt lat="48.16038" lon="3.26089">
        <ele>83</ele>
        <time>2019-12-30T15:29:51+01:00</time>
      </trkpt>
      <trkpt lat="48.16034" lon="3.26098">
        <ele>83</ele>
        <time>2019-12-30T15:29:56+01:00</time>
      </trkpt>
      <trkpt lat="48.16035" lon="3.26108">
        <ele>83</ele>
        <time>2019-12-30T15:30:01+01:00</time>
      </trkpt>
      <trkpt lat="48.16037" lon="3.26117">
        <ele>83</ele>
        <time>2019-12-30T15:30:06+01:00</time>
      </trkpt>
      <trkpt lat="48.16026" lon="3.26142">
        <ele>83</ele>
        <time>2019-12-30T15:30:11+01:00</time>
      </trkpt>
      <trkpt lat="48.16021" lon="3.26153">
        <ele>82</ele>
        <time>2019-12-30T15:30:16+01:00</time>
      </trkpt>
      <trkpt lat="48.16013" lon="3.26161">
        <ele>81</ele>
        <time>2019-12-30T15:30:21+01:00</time>
      </trkpt>
      <trkpt lat="48.1602" lon="3.26162">
        <ele>82</ele>
        <time>2019-12-30T15:30:26+01:00</time>
      </trkpt>
      <trkpt lat="48.16025" lon="3.26165">
        <ele>82</ele>
        <time>2019-12-30T15:30:31+01:00</time>
      </trkpt>
      <trkpt lat="48.16033" lon="3.2616">
        <ele>83</ele>
        <time>2019-12-30T15:30:36+01:00</time>
      </trkpt>
      <trkpt lat="48.16036" lon="3.26165">
        <ele>83</ele>
        <time>2019-12-30T15:30:41+01:00</time>
      </trkpt>
      <trkpt lat="48.16042" lon="3.26175">
        <ele>84</ele>
        <time>2019-12-30T15:30:46+01:00</time>
      </trkpt>
      <trkpt lat="48.1605" lon="3.26174">
        <ele>85</ele>
        <time>2019-12-30T15:30:51+01:00</time>
      </trkpt>
      <trkpt lat="48.16053" lon="3.26181">
        <ele>85</ele>
        <time>2019-12-30T15:30:56+01:00</time>
      </trkpt>
      <trkpt lat="48.16057" lon="3.26179">
        <ele>85</ele>
        <time>2019-12-30T15:31:01+01:00</time>
      </trkpt>
      <trkpt lat="48.16056" lon="3.26188">
        <ele>85</ele>
        <time>2019-12-30T15:31:06+01:00</time>
      </trkpt>
      <trkpt lat="48.16062" lon="3.26185">
        <ele>86</ele>
        <time>2019-12-30T15:31:11+01:00</time>
      </trkpt>
      <trkpt lat="48.16066" lon="3.26181">
        <ele>86</ele>
        <time>2019-12-30T15:31:16+01:00</time>
      </trkpt>
      <trkpt lat="48.16068" lon="3.26189">
        <ele>86</ele>
        <time>2019-12-30T15:31:21+01:00</time>
      </trkpt>
      <trkpt lat="48.16071" lon="3.26192">
        <ele>86</ele>
        <time>2019-12-30T15:31:26+01:00</time>
      </trkpt>
      <trkpt lat="48.16076" lon="3.26199">
        <ele>87</ele>
        <time>2019-12-30T15:31:31+01:00</time>
      </trkpt>
      <trkpt lat="48.16067" lon="3.26241">
        <ele>85</ele>
        <time>2019-12-30T15:31:36+01:00</time>
      </trkpt>
      <trkpt lat="48.16062" lon="3.26265">
        <ele>85</ele>
        <time>2019-12-30T15:31:41+01:00</time>
      </trkpt>
      <trkpt lat="48.16063" lon="3.2628">
        <ele>86</ele>
        <time>2019-12-30T15:31:46+01:00</time>
      </trkpt>
      <trkpt lat="48.16061" lon="3.26297">
        <ele>86</ele>
        <time>2019-12-30T15:31:51+01:00</time>
      </trkpt>
      <trkpt lat="48.16087" lon="3.26279">
        <ele>87</ele>
        <time>2019-12-30T15:31:56+01:00</time>
      </trkpt>
      <trkpt lat="48.16086" lon="3.26272">
        <ele>87</ele>
        <time>2019-12-30T15:32:01+01:00</time>
      </trkpt>
    </trkseg>
  </trk>
</gpx>